KBUF/BUF METAR and TAF weather

Enter ICAO airport designator
Station Type Date Time Source
KBUF METAR 2020/02/29 01:54 UTC NOAA

KBUF 290154Z 26017G24KT 10SM FEW035 OVC055 M04/M11 A2978 RMK AO2 PK WND 26029/0130 SLP096 T10391111


Station Type Date Time Source
KBUF Decoded METAR 2020/02/29 01:54 UTC NOAA

GREATER BUFFALO INTERNATIONAL AIRPORT , NY, United States (KBUF) 42-56N 078-44W 225M
Feb 28, 2020 - 08:54 PM EST / 2020.02.29 0154 UTC
Wind: from the W (260 degrees) at 20 MPH (17 KT) gusting to 28 MPH (24 KT):0
Visibility: 10 mile(s):0
Sky conditions: overcast
Temperature: 25.0 F (-3.9 C)
Windchill: 10 F (-12 C):1
Dew Point: 12.0 F (-11.1 C)
Relative Humidity: 57%
Pressure (altimeter): 29.78 in. Hg (1008 hPa)
ob: KBUF 290154Z 26017G24KT 10SM FEW035 OVC055 M04/M11 A2978 RMK AO2 PK WND 26029/0130 SLP096 T10391111
cycle: 2

Station Type Date Time Source
KBUF TAF 2020/02/28 22:48 UTC NOAA

TAF
AMD KBUF 282144Z 2822/2918 24020G32KT 2SM -SN SCT015 BKN025
TEMPO 2822/2824 4SM -SN
FM290000 26015G25KT 1SM -SN BKN015
FM290300 27012G20KT 5SM -SN BKN025
FM290800 28012KT P6SM VCSH BKN025
FM291400 28012G18KT P6SM VCSH BKN035

Example: see airport list